Weather at Haugesund Heliport, Haugesund Hospital

Public forecast

Using degrees Celsius for public forecast. Weather courtesy of forecast.io.

Closest aviation weather report (METAR) to Haugesund Heliport, Haugesund Hospital

Closest report is Haugesund Airport, Karm√ły, 4.4 nm (8.1 km) SSW. Retrieved 2021/10/22 03:20 UTC (12 minutes ago):

ENHD 220320Z AUTO 31022G34KT 9999 FEW015/// 06/01 Q0992 RERA

Closest aviation forecast (TAF) to Haugesund Heliport, Haugesund Hospital

Closest forecast is Stavanger Airport, Sola, 33.8 nm (62.6 km) SSE. Retrieved 2021-10-22 00:57 UTC (3 hours ago):

TAF ENZV 212300Z 2200/2224 34020KT 9999 -SHRA FEW020TCU BKN030 TEMPO 2200/2212 34025G35KT 4000 SHRAGS BKN014 SCT020CB TEMPO 2212/2221 33030G40KT